This is the latest recevied weather packets stored in our database for station/object WB4YDL. If no packets are shown the sender has not sent any weather packets the latest 10 day(s).
| Time | Temp. | Humidity | Pressure | Rain* | Wind** | Luminosity | Snow |
|---|---|---|---|---|---|---|---|
| 1778092163 | 13.89° C | 80% | 1009.9 hPa | 0 mm | - | 263 W/m² | - |
| 1778091861 | 13.89° C | 82% | 1010.3 hPa | 0 mm | - | 243 W/m² | - |
| 1778091558 | 13.89° C | 81% | 1010.2 hPa | 0 mm | - | 202 W/m² | - |
| 1778091256 | 13.89° C | 82% | 1010 hPa | 0 mm | - | 204 W/m² | - |
| 1778090952 | 13.89° C | 82% | 1009.9 hPa | 0 mm | - | 204 W/m² | - |
| 1778090648 | 13.89° C | 82% | 1010 hPa | 0 mm | - | 221 W/m² | - |
| 1778090345 | 14.44° C | 83% | 1009.9 hPa | 0 mm | - | 239 W/m² | - |
| 1778090041 | 13.89° C | 83% | 1009.7 hPa | 0 mm | - | 298 W/m² | - |
| 1778089739 | 13.89° C | 82% | 1009.8 hPa | 0 mm | - | 288 W/m² | - |
| 1778089436 | 13.89° C | 81% | 1009.8 hPa | 0 mm | - | 290 W/m² | - |
| 1778089134 | 14.44° C | 82% | 1009.8 hPa | 0 mm | - | 379 W/m² | - |
| 1778088830 | 15° C | 80% | 1010.5 hPa | 0 mm | - | 238 W/m² | - |
| 1778088527 | 14.44° C | 85% | 1010.3 hPa | 0 mm | - | 596 W/m² | - |
| 1778088224 | 13.89° C | 82% | 1010.3 hPa | 0 mm | - | 402 W/m² | - |
| 1778087921 | 13.89° C | 83% | 1010.2 hPa | 0 mm | - | 461 W/m² | - |
| 1778087618 | 13.89° C | 83% | 1010.2 hPa | 0 mm | - | 387 W/m² | - |
| 1778087317 | 13.33° C | 85% | 1010.2 hPa | 0 mm | - | 288 W/m² | - |
| 1778087012 | 13.33° C | 85% | 1010.3 hPa | 0 mm | - | 236 W/m² | - |
| 1778086711 | 12.78° C | 85% | 1010.4 hPa | 0 mm | - | 240 W/m² | - |
| 1778086409 | 12.78° C | 84% | 1010.2 hPa | 0 mm | - | 356 W/m² | - |
| 1778086100 | 13.33° C | 84% | 1010.1 hPa | 0 mm | - | 289 W/m² | - |
| 1778085796 | 13.33° C | 83% | 1010 hPa | 0 mm | - | 272 W/m² | - |
| 1778085494 | 13.33° C | 86% | 1009.8 hPa | 0 mm | - | 406 W/m² | - |
| 1778085188 | 13.33° C | 84% | 1009.6 hPa | 0 mm | - | 306 W/m² | - |
| 1778084884 | 12.78° C | 86% | 1009.7 hPa | 0 mm | - | 426 W/m² | - |
* Rain latest hour (hover to see other rain measurements)
** Current wind speed in m/s (hover to see current wind gust speed)